Time;durP1;ratioP1;P1;durP2;ratioP2;P2;SDS_P1;SDS_P2;PMS_P1;PMS_P2;Temp;Humidity;BMP_temperature;BMP_pressure;BME280_temperature;BME280_humidity;BME280_pressure;Samples;Min_cycle;Max_cycle;Signal;HPM_P1;HPM_P2
2021/12/17 00:01:05;;;;;;;10.45;2.20;;;23.70;99.90;;;;;;5037583;28;20038;-69
2021/12/17 00:03:40;;;;;;;9.20;2.15;;;23.50;99.90;;;;;;5042847;28;20128;-69
2021/12/17 00:08:40;;;;;;;11.68;2.35;;;23.10;99.90;;;;;;5044113;28;20028;-70
2021/12/17 00:11:08;;;;;;;8.38;1.83;;;23.10;99.90;;;;;;5051477;28;20116;-70
2021/12/17 00:13:37;;;;;;;12.35;2.20;;;23.10;99.90;;;;;;5049819;28;20029;-69
2021/12/17 00:16:14;;;;;;;13.52;2.17;;;22.90;99.90;;;;;;5053984;28;20436;-70
2021/12/17 00:49:04;;;;;;;13.95;2.47;;;22.40;99.90;;;;;;5044636;28;20522;-70
2021/12/17 00:54:13;;;;;;;9.90;1.92;;;22.20;99.90;;;;;;5051995;28;20029;-69
2021/12/17 00:56:40;;;;;;;10.38;2.47;;;22.30;99.90;;;;;;5051838;28;20029;-69
2021/12/17 00:59:07;;;;;;;11.98;3.00;;;22.30;99.90;;;;;;5052154;28;20017;-69
2021/12/17 01:01:35;;;;;;;9.50;2.17;;;22.30;99.90;;;;;;5053247;28;20025;-70
2021/12/17 01:04:02;;;;;;;11.55;1.98;;;22.40;99.90;;;;;;5047266;28;20031;-69
2021/12/17 01:06:30;;;;;;;14.23;1.80;;;22.40;99.90;;;;;;5033633;28;20033;-69
2021/12/17 01:08:58;;;;;;;13.50;1.90;;;22.40;99.90;;;;;;5041432;28;20061;-69
2021/12/17 01:11:28;;;;;;;14.63;2.03;;;22.60;99.90;;;;;;5048688;28;20406;-69
2021/12/17 01:13:56;;;;;;;12.65;2.47;;;22.80;99.90;;;;;;5059645;28;20551;-69
2021/12/17 01:16:24;;;;;;;12.00;2.60;;;23.20;99.90;;;;;;5052045;28;20048;-70
2021/12/17 01:19:04;;;;;;;10.73;2.22;;;23.20;99.90;;;;;;5041886;28;20470;-70
2021/12/17 01:21:40;;;;;;;15.75;2.85;;;23.10;99.90;;;;;;5033347;28;20386;-69
2021/12/17 01:42:49;;;;;;;11.05;2.53;;;22.60;99.90;;;;;;5052014;28;20075;-69
2021/12/17 01:45:16;;;;;;;14.95;2.58;;;22.70;99.90;;;;;;5052869;28;20531;-70
2021/12/17 01:47:44;;;;;;;11.55;2.33;;;22.90;99.90;;;;;;5051485;28;20154;-70
2021/12/17 01:55:51;;;;;;;8.45;1.80;;;23.30;99.90;;;;;;5053063;28;20036;-70
2021/12/17 02:01:06;;;;;;;6.18;1.88;;;23.00;99.90;;;;;;5052370;28;20496;-70
2021/12/17 02:03:34;;;;;;;14.00;1.85;;;22.90;99.90;;;;;;5048967;28;20021;-70
2021/12/17 02:06:03;;;;;;;8.35;1.63;;;22.80;99.90;;;;;;5038177;28;20069;-70
2021/12/17 02:08:31;;;;;;;9.20;1.90;;;22.80;99.90;;;;;;5054470;28;20059;-70
2021/12/17 02:22:40;;;;;;;13.38;3.10;;;23.50;99.90;;;;;;5052128;28;20064;-70
2021/12/17 02:30:36;;;;;;;11.13;2.10;;;24.20;99.90;;;;;;5023519;28;20488;-70
2021/12/17 02:33:04;;;;;;;6.72;1.33;;;24.00;99.90;;;;;;5037949;28;20081;-69
2021/12/17 02:35:40;;;;;;;12.25;2.00;;;24.50;99.90;;;;;;5056429;28;20029;-69
2021/12/17 02:38:10;;;;;;;18.42;2.92;;;24.60;99.90;;;;;;5054399;28;20041;-70
2021/12/17 02:46:08;;;;;;;9.25;1.75;;;24.70;99.90;;;;;;5053240;28;20163;-70
2021/12/17 02:48:36;;;;;;;10.45;1.70;;;25.00;99.90;;;;;;5044304;28;20025;-70
2021/12/17 02:51:04;;;;;;;9.48;3.13;;;24.80;99.90;;;;;;5053983;28;20598;-70
2021/12/17 02:53:31;;;;;;;11.63;2.33;;;24.90;99.90;;;;;;5055443;28;20018;-71
2021/12/17 02:56:05;;;;;;;7.78;1.95;;;24.90;99.90;;;;;;5056151;28;20143;-70
2021/12/17 02:58:36;;;;;;;9.35;2.03;;;24.80;99.90;;;;;;5055055;28;20017;-69
2021/12/17 03:01:06;;;;;;;10.00;2.13;;;24.70;99.90;;;;;;5038949;28;20108;-70
2021/12/17 03:03:36;;;;;;;10.70;1.90;;;24.70;99.90;;;;;;5055350;28;20028;-70
2021/12/17 03:06:04;;;;;;;32.92;5.47;;;24.90;99.90;;;;;;5054013;28;20029;-70
2021/12/17 03:08:32;;;;;;;9.60;1.55;;;25.20;99.90;;;;;;5046200;28;20513;-70
2021/12/17 03:11:00;;;;;;;6.55;1.70;;;25.30;99.90;;;;;;5035802;28;20040;-70
2021/12/17 03:13:30;;;;;;;12.45;2.08;;;24.90;99.90;;;;;;5037758;28;20359;-70
2021/12/17 03:16:06;;;;;;;8.02;1.83;;;25.00;99.90;;;;;;5036225;28;20478;-70
2021/12/17 03:24:05;;;;;;;8.35;1.58;;;25.00;99.90;;;;;;5053284;28;20032;-70
2021/12/17 03:26:32;;;;;;;15.48;2.20;;;25.10;99.90;;;;;;5055780;28;20135;-71
2021/12/17 03:29:08;;;;;;;6.72;1.30;;;25.00;99.90;;;;;;5053800;28;20044;-70
2021/12/17 03:31:35;;;;;;;6.45;1.20;;;25.00;99.90;;;;;;5054932;28;20129;-70
2021/12/17 03:34:23;;;;;;;7.65;1.00;;;24.80;99.90;;;;;;5044667;28;20036;-71
2021/12/17 03:36:57;;;;;;;24.05;3.45;;;24.70;99.90;;;;;;5054774;28;20182;-70
2021/12/17 03:39:27;;;;;;;16.85;2.10;;;24.50;99.90;;;;;;5055067;28;20496;-70
2021/12/17 03:41:55;;;;;;;7.43;1.00;;;24.60;99.90;;;;;;5038705;28;20564;-70
2021/12/17 03:44:23;;;;;;;22.15;4.45;;;24.50;99.90;;;;;;5053986;28;20435;-70
2021/12/17 03:46:51;;;;;;;8.70;1.48;;;24.40;99.90;;;;;;5056528;28;20540;-70
2021/12/17 03:49:23;;;;;;;9.40;1.23;;;24.60;99.90;;;;;;5055795;28;20040;-70
2021/12/17 03:52:03;;;;;;;5.65;1.55;;;24.40;99.90;;;;;;5054829;28;20136;-70
2021/12/17 03:54:33;;;;;;;6.13;1.15;;;24.10;99.90;;;;;;5052873;28;20036;-70
2021/12/17 03:57:01;;;;;;;14.80;1.52;;;24.10;99.90;;;;;;5056610;28;20043;-69
2021/12/17 03:59:28;;;;;;;7.50;1.63;;;24.20;99.90;;;;;;5053121;28;20536;-70
2021/12/17 04:01:56;;;;;;;6.53;1.83;;;24.40;99.90;;;;;;5055990;28;20017;-69
2021/12/17 04:04:23;;;;;;;8.50;1.40;;;24.50;99.90;;;;;;5051791;28;20021;-69
2021/12/17 04:06:50;;;;;;;6.85;1.00;;;24.40;99.90;;;;;;5051465;28;20048;-70
2021/12/17 04:09:20;;;;;;;6.40;1.30;;;24.30;99.90;;;;;;5050540;28;20036;-70
2021/12/17 04:11:47;;;;;;;7.10;1.23;;;24.40;99.90;;;;;;5057297;28;20041;-72
2021/12/17 04:14:15;;;;;;;8.25;1.20;;;24.40;99.90;;;;;;5052462;28;20362;-70
2021/12/17 04:16:45;;;;;;;5.22;1.73;;;24.40;99.90;;;;;;5053541;28;20083;-70
2021/12/17 04:19:12;;;;;;;9.93;1.73;;;24.30;99.90;;;;;;5053921;28;20033;-70
2021/12/17 04:21:42;;;;;;;9.48;1.35;;;24.40;99.90;;;;;;5053226;28;20027;-70
2021/12/17 04:24:09;;;;;;;9.15;1.67;;;24.40;99.90;;;;;;5054528;28;20033;-71
2021/12/17 04:26:36;;;;;;;6.38;1.20;;;24.30;99.90;;;;;;5055681;28;20021;-70
2021/12/17 04:29:04;;;;;;;14.98;1.65;;;24.30;99.90;;;;;;5052214;28;20408;-70
2021/12/17 04:31:31;;;;;;;6.80;1.50;;;24.50;99.90;;;;;;5039090;28;20481;-70
2021/12/17 04:33:58;;;;;;;9.70;1.20;;;24.70;99.90;;;;;;5036474;28;20396;-70
2021/12/17 04:36:30;;;;;;;7.22;1.35;;;24.80;99.90;;;;;;5053596;28;20029;-70
2021/12/17 04:38:58;;;;;;;6.38;1.25;;;24.50;99.90;;;;;;5052541;28;20033;-70
2021/12/17 04:57:26;;;;;;;5.10;1.10;;;24.30;99.90;;;;;;5036467;28;20024;-69
2021/12/17 04:59:58;;;;;;;5.43;1.30;;;24.50;99.90;;;;;;5054179;28;20098;-70
2021/12/17 05:02:26;;;;;;;9.27;1.88;;;24.60;99.90;;;;;;5054198;28;20424;-71
2021/12/17 05:04:54;;;;;;;8.77;1.55;;;24.40;99.90;;;;;;5052021;28;20017;-69
2021/12/17 05:07:24;;;;;;;9.25;1.73;;;24.10;99.90;;;;;;5054720;28;20028;-70
2021/12/17 05:10:23;;;;;;;7.85;1.65;;;24.20;99.90;;;;;;5044037;28;20041;-70
2021/12/17 05:20:52;;;;;;;9.82;1.60;;;24.20;99.90;;;;;;5054208;28;20021;-70
2021/12/17 05:23:28;;;;;;;5.50;1.52;;;24.20;99.90;;;;;;5052994;28;20029;-69
2021/12/17 05:25:56;;;;;;;4.90;1.30;;;24.10;99.90;;;;;;5054137;28;20098;-70
2021/12/17 05:28:24;;;;;;;7.00;1.35;;;24.20;99.90;;;;;;5053144;28;20044;-70
2021/12/17 05:30:51;;;;;;;6.95;1.27;;;24.20;99.90;;;;;;5055422;28;20017;-70
2021/12/17 05:33:21;;;;;;;6.45;1.30;;;24.30;99.90;;;;;;5049412;28;20048;-70
2021/12/17 05:35:50;;;;;;;8.38;1.40;;;24.20;99.90;;;;;;5053633;28;20377;-71
2021/12/17 05:38:20;;;;;;;6.32;1.15;;;24.20;99.90;;;;;;5052155;28;20110;-69
2021/12/17 05:40:47;;;;;;;8.05;1.80;;;24.30;99.90;;;;;;5053169;28;20493;-70
2021/12/17 05:43:16;;;;;;;3.85;1.42;;;24.30;99.90;;;;;;5050907;28;20053;-70
2021/12/17 05:46:07;;;;;;;8.48;1.58;;;24.50;99.90;;;;;;5034088;28;20053;-69
2021/12/17 05:48:35;;;;;;;5.60;1.17;;;24.40;99.90;;;;;;5042285;28;20120;-70
2021/12/17 05:51:06;;;;;;;6.28;1.30;;;24.60;99.90;;;;;;5053099;28;20083;-70
2021/12/17 05:53:34;;;;;;;10.35;1.90;;;24.60;99.90;;;;;;5050974;28;20045;-69
2021/12/17 05:56:01;;;;;;;7.65;1.35;;;24.80;99.90;;;;;;5054483;28;20029;-69
2021/12/17 05:58:29;;;;;;;4.45;1.42;;;24.70;99.90;;;;;;5051393;28;20461;-71
2021/12/17 06:00:57;;;;;;;7.57;1.27;;;24.50;99.90;;;;;;5052836;28;20033;-70
2021/12/17 06:03:25;;;;;;;10.27;1.83;;;24.30;99.90;;;;;;5050296;28;20079;-70
2021/12/17 06:05:52;;;;;;;6.47;1.30;;;24.40;99.90;;;;;;5048157;28;20111;-70
2021/12/17 06:08:20;;;;;;;7.05;1.35;;;24.40;99.90;;;;;;5048287;28;20028;-71
2021/12/17 06:10:47;;;;;;;9.35;1.10;;;24.50;99.90;;;;;;5053521;28;20412;-69
2021/12/17 06:13:14;;;;;;;7.00;1.45;;;24.50;99.90;;;;;;5052065;28;20029;-70
2021/12/17 06:15:41;;;;;;;9.57;1.95;;;24.60;99.90;;;;;;5053569;28;20029;-70
2021/12/17 06:18:09;;;;;;;7.75;1.73;;;24.50;99.90;;;;;;5052724;28;20111;-69
2021/12/17 06:20:36;;;;;;;8.82;1.67;;;24.70;99.90;;;;;;5049219;28;20041;-70
2021/12/17 06:23:03;;;;;;;6.47;1.50;;;24.60;99.90;;;;;;5034906;28;20018;-71
2021/12/17 06:25:31;;;;;;;7.10;1.48;;;24.60;99.90;;;;;;5032935;28;20512;-69
2021/12/17 06:27:58;;;;;;;7.65;1.70;;;24.40;99.90;;;;;;5034906;28;20053;-69
2021/12/17 06:30:26;;;;;;;7.07;1.55;;;24.20;99.90;;;;;;5048498;28;20040;-69
2021/12/17 06:32:53;;;;;;;6.97;1.02;;;24.40;99.90;;;;;;5036054;28;20029;-70
2021/12/17 06:35:20;;;;;;;8.00;1.50;;;24.50;99.90;;;;;;5052284;28;20029;-69
2021/12/17 06:37:48;;;;;;;6.47;1.42;;;25.00;99.90;;;;;;5050487;28;20018;-70
2021/12/17 06:40:15;;;;;;;9.43;1.90;;;24.70;99.90;;;;;;5052483;28;20032;-70
2021/12/17 06:42:44;;;;;;;7.45;1.80;;;25.10;99.90;;;;;;5052029;28;20037;-70
2021/12/17 06:45:20;;;;;;;16.38;2.72;;;25.30;99.90;;;;;;5051013;28;20037;-70
2021/12/17 06:47:55;;;;;;;10.80;2.55;;;25.70;99.90;;;;;;5047694;28;20037;-70
2021/12/17 06:56:33;;;;;;;8.57;1.55;;;24.00;99.90;;;;;;5052055;28;20036;-70
2021/12/17 07:01:20;;;;;;;7.13;1.88;;;23.70;99.90;;;;;;5052925;28;20036;-71
2021/12/17 07:06:59;;;;;;;9.27;1.70;;;24.10;99.90;;;;;;5051783;28;20028;-70
2021/12/17 07:17:55;;;;;;;8.75;1.48;;;24.30;99.90;;;;;;5049266;28;20044;-70
2021/12/17 07:23:22;;;;;;;8.40;2.08;;;25.30;99.90;;;;;;5048218;28;20111;-70
2021/12/17 07:32:16;;;;;;;7.28;1.80;;;25.00;99.90;;;;;;5036096;28;20079;-69
2021/12/17 07:34:13;;;;;;;9.70;1.58;;;24.20;99.90;;;;;;5044323;28;20123;-70
2021/12/17 07:36:44;;;;;;;11.25;2.45;;;23.90;99.90;;;;;;5052656;28;20044;-70
2021/12/17 07:39:12;;;;;;;12.45;2.08;;;23.70;99.90;;;;;;5053279;28;20024;-70
2021/12/17 07:41:40;;;;;;;7.15;2.10;;;23.70;99.90;;;;;;5055599;28;20035;-70
2021/12/17 07:44:07;;;;;;;9.35;1.90;;;24.10;99.90;;;;;;5055042;28;20017;-69
2021/12/17 07:46:35;;;;;;;10.02;1.77;;;23.90;99.90;;;;;;5055180;28;20444;-69
2021/12/17 07:49:02;;;;;;;7.63;2.08;;;24.50;99.90;;;;;;5052388;28;20150;-70
2021/12/17 07:51:29;;;;;;;6.13;1.60;;;25.30;99.90;;;;;;5053568;28;20432;-70
2021/12/17 07:53:57;;;;;;;10.90;2.05;;;24.80;99.90;;;;;;5050669;28;20025;-70
2021/12/17 07:56:29;;;;;;;7.40;1.60;;;24.10;99.90;;;;;;5054911;28;20064;-69
2021/12/17 07:58:57;;;;;;;8.60;1.85;;;23.60;99.90;;;;;;5053704;28;20056;-70
2021/12/17 08:01:24;;;;;;;6.20;1.90;;;23.50;99.90;;;;;;5053512;28;20449;-70
2021/12/17 08:03:51;;;;;;;11.23;2.15;;;23.40;99.90;;;;;;5052966;28;20393;-69
2021/12/17 08:06:18;;;;;;;10.40;2.10;;;23.30;99.90;;;;;;5054516;28;20067;-69
2021/12/17 08:08:46;;;;;;;10.80;1.73;;;23.10;99.90;;;;;;5052977;28;20668;-70
2021/12/17 08:11:13;;;;;;;10.55;1.80;;;22.90;99.90;;;;;;5054597;28;20025;-68
2021/12/17 08:13:43;;;;;;;7.47;2.03;;;22.80;99.90;;;;;;5051739;28;20083;-69
2021/12/17 08:27:11;;;;;;;8.25;1.95;;;22.60;99.90;;;;;;5053288;28;20029;-69
2021/12/17 08:29:53;;;;;;;13.02;2.65;;;22.60;99.90;;;;;;5052321;28;20542;-69
2021/12/17 08:32:21;;;;;;;12.13;3.08;;;22.50;99.90;;;;;;5053617;28;20029;-69
2021/12/17 08:34:49;;;;;;;15.73;2.28;;;22.50;99.90;;;;;;5042628;28;20108;-69
2021/12/17 08:37:16;;;;;;;6.97;1.90;;;22.40;99.90;;;;;;5033250;28;20076;-70
2021/12/17 08:39:44;;;;;;;10.57;2.00;;;22.40;99.90;;;;;;5050737;28;20032;-69
2021/12/17 08:42:11;;;;;;;8.10;2.05;;;22.40;99.90;;;;;;5052157;28;20025;-69
2021/12/17 08:44:38;;;;;;;7.75;1.85;;;22.40;99.90;;;;;;5052712;28;20539;-69
2021/12/17 08:47:06;;;;;;;10.88;2.30;;;22.30;99.90;;;;;;5047747;28;20490;-69
2021/12/17 08:49:33;;;;;;;10.10;2.17;;;22.30;99.90;;;;;;5051517;28;20045;-69
2021/12/17 08:52:01;;;;;;;10.85;2.53;;;22.30;99.90;;;;;;5047381;28;20045;-69
2021/12/17 08:54:28;;;;;;;6.43;1.70;;;22.30;99.90;;;;;;5051912;28;20024;-68
2021/12/17 08:56:55;;;;;;;13.00;2.30;;;22.20;99.90;;;;;;5053381;28;20028;-69
2021/12/17 08:59:23;;;;;;;5.93;2.00;;;22.20;99.90;;;;;;5051940;28;20508;-68
2021/12/17 09:01:50;;;;;;;9.43;2.38;;;22.20;99.90;;;;;;5052890;28;20029;-69
2021/12/17 09:04:17;;;;;;;10.55;2.08;;;22.20;99.90;;;;;;5049932;28;20021;-69
2021/12/17 09:06:45;;;;;;;10.73;1.90;;;22.20;99.90;;;;;;5052150;28;20021;-69
2021/12/17 09:09:17;;;;;;;9.52;2.03;;;22.10;99.90;;;;;;5038275;28;20044;-69
2021/12/17 09:11:46;;;;;;;11.70;1.67;;;22.10;99.90;;;;;;5033436;28;20024;-69
2021/12/17 09:14:13;;;;;;;13.20;2.50;;;22.10;99.90;;;;;;5029455;28;20481;-69
2021/12/17 09:16:41;;;;;;;9.63;2.03;;;22.10;99.90;;;;;;5053240;28;20036;-69
2021/12/17 09:19:10;;;;;;;7.93;2.45;;;22.10;99.90;;;;;;5038761;28;20032;-69
2021/12/17 09:21:37;;;;;;;12.48;2.33;;;22.10;99.90;;;;;;5033418;28;20025;-70
2021/12/17 09:24:05;;;;;;;12.50;2.30;;;22.10;99.90;;;;;;5046085;28;20029;-70
2021/12/17 09:26:35;;;;;;;9.70;1.80;;;22.00;99.90;;;;;;5053150;28;20075;-69
2021/12/17 09:29:03;;;;;;;8.27;1.70;;;22.00;99.90;;;;;;5038538;28;20046;-69
2021/12/17 09:31:31;;;;;;;5.63;1.77;;;22.00;99.90;;;;;;5032936;28;20025;-69
2021/12/17 09:33:58;;;;;;;7.78;1.70;;;22.00;99.90;;;;;;5045295;28;20027;-69
2021/12/17 09:36:25;;;;;;;8.85;2.28;;;22.00;99.90;;;;;;5053014;28;20049;-69
2021/12/17 09:38:53;;;;;;;12.00;2.58;;;22.00;99.90;;;;;;5051044;28;20029;-70
2021/12/17 09:41:22;;;;;;;6.45;1.70;;;21.90;99.90;;;;;;5060828;28;20033;-69
2021/12/17 09:43:50;;;;;;;10.68;2.53;;;21.90;99.90;;;;;;5049590;28;20029;-69
2021/12/17 09:46:18;;;;;;;9.88;2.22;;;21.90;99.90;;;;;;5051316;28;20060;-69
2021/12/17 09:48:47;;;;;;;7.20;1.60;;;21.90;99.90;;;;;;5046523;28;20403;-69
2021/12/17 09:51:17;;;;;;;6.70;2.00;;;21.90;99.90;;;;;;5051014;28;20452;-69
2021/12/17 09:53:44;;;;;;;9.85;2.28;;;21.90;99.90;;;;;;5042780;28;20022;-69
2021/12/17 09:56:12;;;;;;;6.47;1.67;;;21.90;99.90;;;;;;5047986;28;20125;-69
2021/12/17 09:58:39;;;;;;;10.27;2.30;;;21.90;99.90;;;;;;5032663;28;20048;-69
2021/12/17 10:01:06;;;;;;;9.95;2.38;;;21.80;99.90;;;;;;5032749;28;20028;-69
2021/12/17 10:03:34;;;;;;;9.35;2.22;;;21.80;99.90;;;;;;5041856;28;20056;-69
2021/12/17 10:06:01;;;;;;;7.72;1.90;;;21.80;99.90;;;;;;5048802;28;20434;-69
2021/12/17 10:08:29;;;;;;;11.30;2.58;;;21.80;99.90;;;;;;5050411;28;20029;-69
2021/12/17 10:11:02;;;;;;;9.07;2.58;;;21.80;99.90;;;;;;5052483;28;20052;-68
2021/12/17 10:13:32;;;;;;;9.10;1.88;;;21.80;99.90;;;;;;5043794;28;20083;-69
2021/12/17 10:16:06;;;;;;;10.82;1.80;;;21.80;99.90;;;;;;5031116;28;20033;-69
2021/12/17 10:18:42;;;;;;;10.17;2.17;;;21.70;99.90;;;;;;5049381;28;20028;-69
2021/12/17 10:21:28;;;;;;;5.68;1.45;;;21.70;99.90;;;;;;5052062;28;20082;-69
2021/12/17 10:23:58;;;;;;;5.53;1.38;;;21.70;99.90;;;;;;5050555;28;20033;-69
2021/12/17 10:26:27;;;;;;;7.05;2.00;;;21.80;99.90;;;;;;5052030;28;20028;-69
2021/12/17 10:28:57;;;;;;;8.18;1.67;;;21.70;99.90;;;;;;5050585;28;20076;-69
2021/12/17 10:31:26;;;;;;;10.50;1.80;;;21.70;99.90;;;;;;5051821;28;20051;-69
2021/12/17 10:33:58;;;;;;;10.85;1.85;;;21.70;99.90;;;;;;5050021;28;20473;-69
2021/12/17 10:36:31;;;;;;;15.40;2.10;;;21.70;99.90;;;;;;5044334;28;20022;-69
2021/12/17 10:39:00;;;;;;;11.60;2.03;;;21.70;99.90;;;;;;5051482;28;20039;-69
2021/12/17 10:41:28;;;;;;;13.95;2.28;;;21.70;99.90;;;;;;5052150;28;20029;-69
2021/12/17 10:44:06;;;;;;;8.63;1.77;;;21.70;99.90;;;;;;5046350;28;20079;-69
2021/12/17 10:46:35;;;;;;;9.25;2.67;;;21.70;99.90;;;;;;5051941;28;20524;-69
2021/12/17 10:49:17;;;;;;;9.75;1.98;;;21.70;99.90;;;;;;5050225;28;20400;-69
2021/12/17 10:51:48;;;;;;;8.40;1.48;;;21.70;99.90;;;;;;5050502;28;20024;-69
2021/12/17 10:54:20;;;;;;;10.02;1.92;;;21.70;99.90;;;;;;5052809;28;20044;-68
2021/12/17 10:56:53;;;;;;;9.43;1.98;;;21.60;99.90;;;;;;5055021;28;20029;-68
2021/12/17 10:59:21;;;;;;;13.80;2.28;;;21.60;99.90;;;;;;5050626;28;20021;-69
2021/12/17 11:02:05;;;;;;;8.82;1.92;;;21.60;99.90;;;;;;5055784;28;20374;-69
2021/12/17 11:04:43;;;;;;;11.32;1.83;;;21.60;99.90;;;;;;5048337;28;20040;-70
2021/12/17 11:07:16;;;;;;;10.43;2.15;;;21.60;99.90;;;;;;5035465;28;20040;-69
2021/12/17 11:10:02;;;;;;;11.63;2.10;;;21.60;99.90;;;;;;5054026;28;20405;-69
2021/12/17 11:12:32;;;;;;;13.25;2.60;;;21.60;99.90;;;;;;5053589;28;20393;-69
2021/12/17 11:15:11;;;;;;;7.13;1.98;;;21.50;99.90;;;;;;5035517;28;20443;-69
2021/12/17 11:17:39;;;;;;;8.77;2.60;;;21.50;99.90;;;;;;5036855;28;20025;-69
2021/12/17 11:20:11;;;;;;;8.07;1.92;;;21.50;99.90;;;;;;5053195;28;20024;-68
2021/12/17 11:22:40;;;;;;;14.45;2.28;;;21.50;99.90;;;;;;5037073;28;20025;-69
2021/12/17 11:25:09;;;;;;;11.23;1.98;;;21.50;99.90;;;;;;5054359;28;20033;-69
2021/12/17 11:27:36;;;;;;;11.82;1.85;;;21.50;99.90;;;;;;5054366;28;20389;-69
2021/12/17 11:30:09;;;;;;;11.30;2.60;;;21.40;99.90;;;;;;5038704;28;20060;-69
2021/12/17 11:32:37;;;;;;;9.50;2.30;;;21.40;99.90;;;;;;5036788;28;20049;-69
2021/12/17 11:35:06;;;;;;;13.15;1.77;;;21.40;99.90;;;;;;5054895;28;20025;-69
2021/12/17 11:37:35;;;;;;;12.38;2.80;;;21.50;99.90;;;;;;5054343;28;20036;-69
2021/12/17 11:40:11;;;;;;;11.82;2.88;;;21.40;99.90;;;;;;5055111;28;20060;-69
2021/12/17 11:43:14;;;;;;;15.63;2.33;;;21.40;99.90;;;;;;5053527;28;20551;-69
2021/12/17 11:45:44;;;;;;;13.88;3.13;;;21.40;99.90;;;;;;5054943;28;20052;-69
2021/12/17 11:48:22;;;;;;;12.18;3.13;;;21.40;99.90;;;;;;5053280;28;20424;-69
2021/12/17 11:51:19;;;;;;;13.85;2.00;;;21.30;99.90;;;;;;5054977;28;20502;-69
2021/12/17 11:54:03;;;;;;;9.75;2.70;;;21.30;99.90;;;;;;5052338;28;20509;-69
2021/12/17 11:56:36;;;;;;;10.35;2.38;;;21.30;99.90;;;;;;5034637;28;20497;-69
2021/12/17 11:59:04;;;;;;;12.85;2.42;;;21.30;99.90;;;;;;5040244;28;20107;-69
2021/12/17 12:02:01;;;;;;;12.98;2.60;;;21.30;99.90;;;;;;5034515;28;20021;-69
2021/12/17 12:04:34;;;;;;;11.20;2.83;;;21.30;99.90;;;;;;5041780;28;20382;-69
2021/12/17 12:07:11;;;;;;;13.75;2.65;;;21.20;99.90;;;;;;5033572;28;20029;-69
2021/12/17 12:09:59;;;;;;;11.77;2.58;;;21.20;99.90;;;;;;5052591;28;20481;-69
2021/12/17 12:12:35;;;;;;;6.95;2.10;;;21.20;99.90;;;;;;5053894;28;20032;-68
2021/12/17 12:15:23;;;;;;;12.48;2.33;;;21.20;99.90;;;;;;5034635;28;20029;-69
2021/12/17 12:18:02;;;;;;;13.35;2.47;;;21.20;99.90;;;;;;5037663;28;20496;-69
2021/12/17 12:20:55;;;;;;;12.25;2.75;;;21.20;99.90;;;;;;5054375;28;20389;-68
2021/12/17 12:23:24;;;;;;;19.65;3.35;;;21.10;99.90;;;;;;5050509;28;20029;-69
2021/12/17 12:26:04;;;;;;;8.15;2.67;;;21.10;99.90;;;;;;5050418;28;20029;-69
2021/12/17 12:29:05;;;;;;;12.50;2.85;;;21.10;99.90;;;;;;5052996;28;20082;-69
2021/12/17 12:31:34;;;;;;;10.82;2.65;;;21.10;99.90;;;;;;5054036;28;20496;-69
2021/12/17 12:34:04;;;;;;;7.53;2.05;;;21.10;99.90;;;;;;5052614;28;20032;-69
2021/12/17 12:36:47;;;;;;;13.27;3.13;;;21.10;99.90;;;;;;5053148;28;20170;-69
2021/12/17 12:39:26;;;;;;;9.85;2.00;;;21.10;99.90;;;;;;5051679;28;20397;-69
2021/12/17 12:42:02;;;;;;;10.63;2.75;;;21.00;99.90;;;;;;5053896;28;20151;-69
2021/12/17 12:44:48;;;;;;;11.73;2.67;;;21.00;99.90;;;;;;5051648;28;20056;-69
2021/12/17 12:47:25;;;;;;;13.75;2.63;;;21.00;99.90;;;;;;5053629;28;20470;-69
2021/12/17 12:50:07;;;;;;;15.50;2.42;;;21.00;99.90;;;;;;5051762;28;20066;-69
2021/12/17 12:52:47;;;;;;;15.93;2.70;;;21.00;99.90;;;;;;5052201;28;20027;-69
2021/12/17 12:55:27;;;;;;;13.45;2.30;;;21.00;99.90;;;;;;5033749;28;20097;-69
2021/12/17 12:57:59;;;;;;;8.57;1.75;;;21.00;99.90;;;;;;5036597;28;20103;-69
2021/12/17 13:00:30;;;;;;;9.52;2.28;;;21.00;99.90;;;;;;5053387;28;20024;-69
2021/12/17 13:03:04;;;;;;;7.97;2.15;;;21.00;99.90;;;;;;5049394;28;20026;-69
2021/12/17 13:05:33;;;;;;;8.43;2.30;;;21.00;99.90;;;;;;5045733;28;20025;-69
2021/12/17 13:08:04;;;;;;;7.95;2.13;;;20.90;99.90;;;;;;5051298;28;20028;-69
2021/12/17 13:10:33;;;;;;;10.70;2.08;;;20.90;99.90;;;;;;5053180;28;20029;-69
2021/12/17 13:13:08;;;;;;;14.73;2.47;;;20.90;99.90;;;;;;5051056;28;20515;-69
2021/12/17 13:24:20;;;;;;;8.18;2.28;;;20.70;99.90;;;;;;5045261;28;20041;-69
2021/12/17 13:27:10;;;;;;;9.00;2.00;;;20.70;99.90;;;;;;5032171;28;20046;-69
2021/12/17 13:29:46;;;;;;;14.05;2.95;;;20.70;99.90;;;;;;5033934;28;20034;-69
2021/12/17 13:32:20;;;;;;;8.98;1.92;;;20.60;99.90;;;;;;5031808;28;20124;-69
2021/12/17 13:34:55;;;;;;;12.02;2.25;;;20.60;99.90;;;;;;5046261;28;20060;-69
2021/12/17 13:37:34;;;;;;;10.50;2.20;;;20.70;99.90;;;;;;5051929;28;20086;-69
2021/12/17 13:40:10;;;;;;;13.13;2.95;;;20.70;99.90;;;;;;5035093;28;20033;-69
2021/12/17 13:42:42;;;;;;;11.43;2.78;;;20.70;99.90;;;;;;5032711;28;20025;-69
2021/12/17 13:45:12;;;;;;;11.52;2.45;;;20.60;99.90;;;;;;5052826;28;20021;-69
2021/12/17 13:47:48;;;;;;;10.40;2.47;;;20.70;99.90;;;;;;5051627;28;20048;-69
2021/12/17 13:50:34;;;;;;;8.35;2.17;;;20.70;99.90;;;;;;5050062;28;20039;-69
2021/12/17 13:53:06;;;;;;;12.20;2.58;;;20.70;99.90;;;;;;5037156;28;20473;-69
2021/12/17 13:55:47;;;;;;;17.77;2.50;;;20.70;99.90;;;;;;5052549;28;20469;-69
2021/12/17 13:58:22;;;;;;;10.20;2.17;;;20.70;99.90;;;;;;5046588;28;20026;-69
2021/12/17 14:00:57;;;;;;;10.00;2.30;;;20.60;99.90;;;;;;5031258;28;20033;-69
2021/12/17 14:03:33;;;;;;;9.98;2.28;;;20.60;99.90;;;;;;5035489;28;20029;-69
2021/12/17 14:06:17;;;;;;;14.95;2.50;;;20.60;99.90;;;;;;5050994;28;20025;-69
2021/12/17 14:08:45;;;;;;;6.88;2.30;;;20.60;99.90;;;;;;5050942;28;20094;-69
2021/12/17 14:11:33;;;;;;;11.63;2.30;;;20.60;99.90;;;;;;5052202;28;20499;-69
2021/12/17 14:14:01;;;;;;;8.32;1.80;;;20.60;99.90;;;;;;5047794;28;20403;-69
2021/12/17 14:16:33;;;;;;;10.40;1.90;;;20.60;99.90;;;;;;5052139;28;20029;-69
2021/12/17 14:19:03;;;;;;;12.20;3.65;;;20.60;99.90;;;;;;5051396;28;20029;-69
2021/12/17 14:21:35;;;;;;;11.32;2.50;;;20.50;99.90;;;;;;5051191;28;20385;-69
2021/12/17 14:24:03;;;;;;;11.30;2.25;;;20.50;99.90;;;;;;5039386;28;20032;-69
2021/12/17 14:26:31;;;;;;;9.25;2.00;;;20.50;99.90;;;;;;5035072;28;20032;-69
2021/12/17 14:29:12;;;;;;;9.70;1.90;;;20.40;99.90;;;;;;5039053;28;20033;-69
2021/12/17 14:31:39;;;;;;;8.63;2.05;;;20.40;99.90;;;;;;5036395;28;20100;-69
2021/12/17 14:34:07;;;;;;;9.43;2.15;;;20.30;99.90;;;;;;5049775;28;20043;-69
2021/12/17 14:36:39;;;;;;;12.57;2.10;;;20.20;99.90;;;;;;5056379;28;20024;-69
2021/12/17 14:39:16;;;;;;;15.13;2.20;;;20.20;99.90;;;;;;5054275;28;20409;-69
2021/12/17 14:42:00;;;;;;;10.77;2.08;;;20.10;99.90;;;;;;5054963;28;20035;-69
2021/12/17 14:44:48;;;;;;;;;;;20.10;99.90;;;;;;5054597;28;20446;-68
2021/12/17 14:47:33;;;;;;;8.73;1.83;;;20.10;99.90;;;;;;5055737;28;19924;-69
2021/12/17 15:03:41;;;;;;;9.32;2.38;;;19.90;99.90;;;;;;5049876;28;20116;-69
2021/12/17 15:06:11;;;;;;;13.07;2.30;;;19.90;99.90;;;;;;5050412;28;20402;-69
2021/12/17 15:08:39;;;;;;;9.93;1.98;;;19.90;99.90;;;;;;5052172;28;20029;-69
2021/12/17 15:11:15;;;;;;;7.38;2.20;;;19.90;99.90;;;;;;5055390;28;20078;-69
2021/12/17 15:13:43;;;;;;;13.50;3.15;;;19.90;99.90;;;;;;5053144;28;20051;-69
2021/12/17 15:16:10;;;;;;;14.25;3.10;;;19.90;99.90;;;;;;5055374;28;20037;-69
2021/12/17 15:18:39;;;;;;;8.27;2.60;;;19.80;99.90;;;;;;5044930;28;20026;-69
2021/12/17 15:21:06;;;;;;;8.65;2.38;;;19.80;99.90;;;;;;5035685;28;20552;-69
2021/12/17 15:23:35;;;;;;;11.68;2.45;;;19.80;99.90;;;;;;5036779;28;20093;-69
2021/12/17 15:26:03;;;;;;;9.73;2.40;;;19.80;99.90;;;;;;5035406;28;20061;-68
2021/12/17 15:28:31;;;;;;;7.80;2.50;;;19.80;99.90;;;;;;5044090;28;20028;-69
2021/12/17 15:31:02;;;;;;;7.85;2.30;;;19.70;99.90;;;;;;5055175;28;20614;-69
2021/12/17 15:33:30;;;;;;;15.02;3.25;;;19.70;99.90;;;;;;5053471;28;20031;-69
2021/12/17 15:35:57;;;;;;;7.68;2.05;;;19.70;99.90;;;;;;5053914;28;20020;-69
2021/12/17 15:38:24;;;;;;;10.82;2.38;;;19.70;99.90;;;;;;5046554;28;20470;-69
2021/12/17 15:40:53;;;;;;;9.05;2.22;;;19.70;99.90;;;;;;5040724;28;20215;-69
2021/12/17 15:43:22;;;;;;;8.98;2.05;;;19.60;99.90;;;;;;5054066;28;20111;-69
2021/12/17 15:45:51;;;;;;;10.10;1.92;;;19.60;99.90;;;;;;5054492;28;20142;-69
2021/12/17 15:48:20;;;;;;;7.53;2.00;;;19.60;99.90;;;;;;5054144;28;20477;-69
2021/12/17 15:50:48;;;;;;;6.45;2.00;;;19.60;99.90;;;;;;5054767;28;20025;-68
2021/12/17 15:53:16;;;;;;;8.70;2.08;;;19.60;99.90;;;;;;5047033;28;20026;-69
2021/12/17 15:55:44;;;;;;;7.20;2.72;;;19.60;99.90;;;;;;5034819;28;20021;-69
2021/12/17 15:58:11;;;;;;;9.32;2.53;;;19.60;99.90;;;;;;5040012;28;20033;-68
2021/12/17 16:00:39;;;;;;;7.40;2.13;;;19.50;99.90;;;;;;5053910;28;20037;-68